Latest Weather Observations for Nullarbor

IDS60801

Issued at 9:51 am CDT Saturday 10 December 2022 (issued every 10 minutes, with the page automatically refreshed every 10 minutes)

About weather observations | Map of weather stations | Latest weather observations for SA | Other Formats
Station Details ID: 018106 Name: NULLARBOR Lat: -31.45 Lon: 130.90 Height: 64.0 m
Data from the previous 72 hours. | See also: Recent months at Nullarbor
Date/Time
CDT
Temp
°C
App
Temp
°C
Dew
Point
°C
Rel
Hum
%
Delta-T
°C
Wind Press
QNH
hPa
Press
MSL
hPa
Rain since
9am
mm
Dir  Spd
km/h
Gust
km/h
Spd
kts
Gust
kts
10/09:30am 25.1 23.2 15.1 53 6.0 SSE 19 24 10 13 1009.6 1009.3 0.0
10/09:00am 23.5 23.0 15.8 62 4.7 SSE 13 19 7 10 1009.2 1008.9 0.0
10/08:30am 21.4 21.5 16.4 73 3.0 SE 11 15 6 8 1008.8 1008.5 0.0
10/08:00am 20.0 20.5 16.6 81 2.1 SSE 9 13 5 7 1008.5 1008.2 0.0
10/07:30am 17.8 18.7 16.5 92 0.8 S 7 11 4 6 1008.4 1008.1 0.0
10/07:00am 15.4 14.4 14.6 95 0.5 S 13 13 7 7 1008.2 1007.9 0.0
10/06:30am 15.1 14.3 14.1 94 0.6 S 11 15 6 8 1007.8 1007.5 0.0
10/06:00am 15.4 14.3 14.4 94 0.6 SSW 13 15 7 8 1007.6 1007.3 0.0
10/05:30am 15.7 14.7 14.6 93 0.6 SSW 13 17 7 9 1007.6 1007.3 0.0
10/05:00am 16.0 15.0 14.5 91 0.9 SW 13 15 7 8 1007.3 1007.0 0.0
10/04:30am 16.5 15.7 15.0 91 0.9 SW 13 15 7 8 1007.1 1006.8 0.0
10/04:00am 16.9 17.0 15.4 91 0.9 SSW 9 11 5 6 1007.1 1006.8 0.0
10/03:30am 16.7 16.7 15.1 90 0.9 SSW 9 11 5 6 1007.1 1006.8 0.0
10/03:00am 17.2 16.5 15.4 89 1.1 SSW 13 17 7 9 1006.8 1006.6 0.0
10/02:30am 17.7 16.7 15.7 88 1.2 SSW 15 17 8 9 1006.7 1006.5 0.0
10/02:00am 18.3 17.7 15.7 85 1.5 SSW 13 19 7 10 1007.1 1006.8 0.0
10/01:30am 18.5 16.8 15.7 84 1.7 SSW 19 24 10 13 1006.6 1006.4 0.0
10/01:00am 18.7 17.0 15.8 83 1.7 SSW 19 24 10 13 1006.8 1006.6 0.0
10/12:30am 19.1 17.2 15.8 81 2.0 SW 20 26 11 14 1006.7 1006.5 0.0
10/12:00am 19.1 17.1 15.6 80 2.1 SSW 20 26 11 14 1006.5 1006.3 0.0
 
Date/Time
CDT
Temp
°C
App
Temp
°C
Dew
Point
°C
Rel
Hum
%
Delta-T
°C
Wind Press
QNH
hPa
Press
MSL
hPa
Rain since
9am
mm
Dir  Spd
km/h
Gust
km/h
Spd
kts
Gust
kts
09/11:30pm 19.4 18.1 15.9 80 2.1 SSW 17 24 9 13 1006.7 1006.5 0.0
09/11:00pm 19.6 17.6 15.5 77 2.4 SSW 20 24 11 13 1006.6 1006.4 0.0
09/10:30pm 20.4 17.9 15.2 72 3.1 SSW 22 30 12 16 1006.4 1006.2 0.0
09/10:00pm 21.6 19.2 14.5 64 4.2 SSW 20 22 11 12 1006.2 1006.0 0.0
09/09:30pm 22.3 20.0 14.2 60 4.8 SSW 19 24 10 13 1005.7 1005.5 0.0
09/09:00pm 23.1 20.6 14.1 57 5.3 S 20 26 11 14 1005.4 1005.2 0.0
09/08:30pm 24.7 22.1 13.3 49 6.7 SSE 19 24 10 13 1004.9 1004.7 0.0
09/08:00pm 26.0 22.9 13.5 46 7.4 SSE 22 32 12 17 1004.3 1004.1 0.0
09/07:30pm 27.3 23.3 12.9 41 8.5 SE 26 33 14 18 1003.9 1003.7 0.0
09/07:00pm 28.9 24.3 12.3 36 9.7 SE 28 35 15 19 1003.7 1003.5 0.0
09/06:30pm 29.4 24.3 11.9 34 10.2 SE 30 39 16 21 1003.4 1003.2 0.0
09/06:00pm 30.4 25.4 12.3 33 10.7 SE 30 37 16 20 1003.0 1002.8 0.0
09/05:30pm 30.7 25.6 13.0 33 10.6 SE 32 35 17 19 1003.1 1002.9 0.0
09/05:00pm 33.5 28.6 12.5 28 12.6 SE 30 35 16 19 1003.4 1003.2 0.0
09/04:30pm 35.4 31.0 13.0 26 13.6 SE 28 32 15 17 1003.4 1003.2 0.0
09/04:00pm 38.9 37.0 11.9 20 16.3 NW 13 28 7 15 1003.8 1003.6 0.0
09/03:30pm 37.6 35.4 10.8 20 15.9 NNW 13 24 7 13 1004.2 1004.0 0.0
09/03:00pm 37.4 34.6 11.4 21 15.6 NNW 17 32 9 17 1004.7 1004.5 0.0
09/02:30pm 36.5 33.3 11.3 22 15.0 N 19 30 10 16 1005.1 1004.9 0.0
09/02:00pm 36.3 32.1 11.2 22 14.9 N 24 35 13 19 1005.6 1005.4 0.0
09/01:30pm 35.6 29.9 9.9 21 15.0 N 30 43 16 23 1006.0 1005.8 0.0
09/01:00pm 34.4 27.3 8.2 20 14.7 N 35 48 19 26 1006.4 1006.2 0.0
09/12:30pm 33.0 25.3 7.1 20 14.2 N 37 52 20 28 1006.7 1006.5 0.0
09/12:00pm 31.5 23.1 7.2 22 13.3 NNE 41 54 22 29 1007.1 1006.8 0.0
09/11:30am 30.7 22.1 6.6 22 13.0 NNE 41 54 22 29 1007.3 1007.0 0.0
09/11:00am 29.9 20.6 5.9 22 12.7 NNE 44 59 24 32 1007.6 1007.3 0.0
09/10:52am 29.3 20.2 6.0 23 12.3 NNE 43 61 23 33 1007.7 1007.4 0.0
09/10:30am 28.0 18.8 6.2 25 11.5 NNE 44 57 24 31 1008.1 1007.8 0.0
09/10:00am 26.8 17.9 6.8 28 10.6 NNE 43 57 23 31 1008.5 1008.2 0.0
09/09:30am 25.3 18.0 8.7 35 9.0 NNE 37 48 20 26 1008.8 1008.5 0.0
09/09:00am 23.3 16.1 9.3 41 7.6 NNE 37 48 20 26 1009.0 1008.7 5.4
09/08:30am 21.6 16.0 10.1 48 6.3 NNE 30 43 16 23 1008.9 1008.6 5.4
09/08:00am 19.5 15.6 10.8 57 4.7 NNE 22 30 12 16 1008.9 1008.6 5.4
09/07:30am 18.9 13.8 10.7 59 4.5 NNE 28 39 15 21 1008.4 1008.1 5.2
09/07:00am 17.7 12.5 10.3 62 4.0 NNE 28 35 15 19 1008.5 1008.2 5.2
09/06:30am 17.3 11.3 10.0 62 3.9 NNE 32 39 17 21 1008.4 1008.1 5.2
09/06:00am 17.5 11.4 9.9 61 4.0 NNE 32 43 17 23 1008.0 1007.7 5.2
09/05:30am 17.2 11.1 10.6 65 3.5 NNE 33 43 18 23 1008.2 1007.9 5.2
09/05:00am 16.8 11.1 11.1 69 3.1 NNE 32 43 17 23 1008.1 1007.8 5.2
09/04:30am 16.4 10.4 10.9 70 3.0 NNE 33 46 18 25 1007.7 1007.4 5.2
09/04:00am 16.5 10.2 11.0 70 3.0 NNE 35 46 19 25 1007.6 1007.3 5.2
09/03:30am 16.2 10.0 11.4 73 2.6 NNE 35 44 19 24 1008.2 1007.9 5.2
09/03:08am 15.5 11.2 12.1 80 1.9 NE 26 35 14 19 1008.9 1008.6 5.2
09/03:00am 15.6 11.4 12.4 81 1.8 NE 26 33 14 18 1009.0 1008.7 5.2
09/02:39am 17.2 13.2 11.7 70 3.0 NNE 24 32 13 17 1010.2 1010.0 3.6
09/02:30am 16.6 13.0 12.0 74 2.5 NNE 22 32 12 17 1009.5 1009.2 3.6
09/02:00am 16.4 10.9 12.0 75 2.4 NNE 32 41 17 22 1008.2 1007.9 3.4
09/01:30am 15.7 11.2 12.6 82 1.7 NE 28 35 15 19 1008.4 1008.1 3.4
09/01:00am 15.3 11.0 13.2 87 1.2 NE 28 35 15 19 1008.8 1008.5 3.4
09/12:30am 15.2 9.0 13.9 92 0.7 ENE 39 52 21 28 1009.5 1009.2 3.4
09/12:24am 15.2 8.7 13.9 92 0.7 ENE 41 52 22 28 1009.6 1009.3 3.4
09/12:11am 15.5 10.3 14.4 93 0.6 E 35 48 19 26 1010.4 1010.2 3.4
09/12:00am 15.7 10.5 14.4 92 0.7 E 35 46 19 25 1012.4 1012.2 3.4
 
Date/Time
CDT
Temp
°C
App
Temp
°C
Dew
Point
°C
Rel
Hum
%
Delta-T
°C
Wind Press
QNH
hPa
Press
MSL
hPa
Rain since
9am
mm
Dir  Spd
km/h
Gust
km/h
Spd
kts
Gust
kts
08/11:48pm 15.6 10.7 14.3 92 0.7 E 33 48 18 26 1013.5 1013.3 3.2
08/11:30pm 15.6 8.6 13.8 89 1.0 E 43 56 23 30 1011.3 1011.1 1.8
08/11:16pm 16.3 8.3 13.4 83 1.6 ESE 48 61 26 33 1012.2 1012.0 0.4
08/11:10pm 16.8 8.7 13.1 79 2.1 ESE 48 65 26 35 1012.8 1012.6 0.0
08/11:00pm 16.6 8.1 13.3 81 1.9 SE 50 65 27 35 1012.8 1012.6 0.0
08/10:42pm 17.0 9.9 13.3 79 2.1 SE 43 61 23 33 1014.5 1014.3 0.0
08/10:36pm 17.2 10.2 13.7 80 2.0 SE 43 59 23 32 1014.9 1014.7 0.0
08/10:30pm 17.3 10.0 13.4 78 2.2 SE 44 59 24 32 1014.6 1014.4 0.0
08/10:00pm 17.3 10.6 13.4 78 2.2 SE 41 57 22 31 1013.8 1013.6 0.0
08/09:30pm 18.0 12.8 13.5 75 2.6 SE 33 44 18 24 1013.9 1013.7 0.0
08/09:13pm 18.9 16.2 13.5 71 3.1 SSE 20 32 11 17 1014.0 1013.8 0.0
08/09:00pm 19.4 16.9 12.4 64 3.9 SE 17 22 9 12 1012.0 1011.8 0.0
08/08:30pm 21.6 16.6 6.3 37 7.8 ESE 22 28 12 15 1011.4 1011.2 0.0
08/08:00pm 22.3 17.4 6.9 37 7.9 ENE 22 30 12 16 1011.8 1011.6 0.0
08/07:30pm 22.3 16.4 7.3 38 7.8 ENE 28 39 15 21 1011.4 1011.2 0.0
08/07:00pm 22.4 15.9 6.6 36 8.1 NE 30 37 16 20 1011.0 1010.8 0.0
08/06:30pm 21.1 17.4 10.0 49 6.0 ENE 20 26 11 14 1011.0 1010.8 0.0
08/06:00pm 20.3 16.5 11.0 55 5.1 E 22 30 12 16 1011.4 1011.2 0.0
08/05:30pm 20.2 15.2 10.9 55 5.1 E 28 33 15 18 1012.1 1011.9 0.0
08/05:00pm 19.8 14.2 12.1 61 4.3 E 33 44 18 24 1011.9 1011.7 0.0
08/04:30pm 17.6 12.9 11.9 69 3.1 ESE 28 37 15 20 1013.0 1012.8 0.0
08/04:20pm 17.8 14.2 11.8 68 3.3 ESE 22 30 12 16 1013.7 1013.5 0.0
08/04:00pm 18.2 15.6 10.8 62 4.0 SE 15 19 8 10 1015.7 1015.5 0.0
08/03:30pm 18.1 14.4 10.2 60 4.2 ESE 20 28 11 15 1015.8 1015.6 0.0
08/03:00pm 18.4 14.6 9.7 57 4.6 SE 20 26 11 14 1015.5 1015.3 0.0
08/02:30pm 18.9 15.6 9.4 54 5.0 SSE 17 22 9 12 1016.6 1016.4 0.0
08/02:00pm 18.5 14.5 9.0 54 5.0 SE 20 26 11 14 1016.5 1016.3 0.0
08/01:30pm 19.1 15.5 8.4 50 5.5 ESE 17 20 9 11 1016.4 1016.2 0.0
08/01:00pm 19.2 15.1 7.9 48 5.8 ESE 19 22 10 12 1016.2 1016.0 0.0
08/12:30pm 19.3 16.1 6.8 44 6.3 ENE 13 20 7 11 1016.8 1016.6 0.0
08/12:00pm 18.8 13.1 6.6 45 6.1 E 26 39 14 21 1016.4 1016.2 0.0
08/11:59am 18.6 12.5 6.8 46 5.9 E 28 39 15 21 1016.4 1016.2 0.0
08/11:51am 18.1 11.6 6.3 46 5.8 E 30 39 16 21 1014.4 1014.2 0.0
08/11:30am 18.4 13.2 7.2 48 5.6 E 24 35 13 19 1016.4 1016.2 0.0
08/11:00am 17.6 13.4 8.2 54 4.8 E 20 30 11 16 1017.3 1017.1 0.0
08/10:30am 17.2 13.1 7.8 54 4.8 ENE 19 24 10 13 1018.5 1018.3 0.0
08/10:00am 16.9 11.0 7.3 53 4.8 E 28 37 15 20 1017.5 1017.3 0.0
08/09:30am 15.9 8.8 7.9 59 4.0 E 35 46 19 25 1017.3 1017.1 0.0
08/09:00am 15.6 8.8 7.9 60 3.9 E 33 44 18 24 1017.6 1017.4 0.0
08/08:30am 16.1 11.2 8.3 60 4.0 E 24 33 13 18 1018.5 1018.3 0.0
08/08:00am 14.2 9.3 8.4 68 2.9 E 24 33 13 18 1017.7 1017.5 0.0
08/07:30am 12.8 9.3 8.9 77 2.0 E 17 20 9 11 1017.7 1017.5 0.0
08/07:00am 11.3 8.5 8.5 83 1.4 ENE 13 15 7 8 1017.5 1017.3 0.0
08/06:30am 11.1 7.8 8.1 82 1.5 E 15 19 8 10 1016.8 1016.6 0.0
08/06:00am 11.7 8.2 8.6 81 1.5 E 17 20 9 11 1016.6 1016.4 0.0
08/05:30am 11.8 8.2 8.5 80 1.6 E 17 20 9 11 1016.3 1016.1 0.0
08/05:00am 12.4 8.6 8.9 79 1.8 ENE 19 24 10 13 1016.6 1016.4 0.0
08/04:30am 12.0 8.8 8.5 79 1.7 ENE 15 19 8 10 1016.9 1016.7 0.0
08/04:00am 12.1 9.2 8.2 77 1.9 E 13 17 7 9 1016.9 1016.7 0.0
08/03:30am 13.0 9.8 8.3 73 2.3 E 15 19 8 10 1017.1 1016.9 0.0
08/03:00am 14.2 10.1 8.8 70 2.7 E 20 24 11 13 1017.4 1017.2 0.0
08/02:30am 15.0 11.7 9.4 69 2.9 E 17 22 9 12 1017.8 1017.6 0.0
08/02:00am 14.8 11.9 9.6 71 2.7 E 15 19 8 10 1017.9 1017.7 0.0
08/01:30am 15.4 10.9 8.6 64 3.5 ESE 22 32 12 17 1018.3 1018.1 0.0
08/01:00am 15.1 11.3 9.0 67 3.1 ESE 19 24 10 13 1018.4 1018.2 0.0
08/12:30am 15.4 11.5 9.5 68 3.1 ESE 20 26 11 14 1018.7 1018.5 0.0
08/12:00am 15.4 11.7 9.5 68 3.1 SE 19 28 10 15 1019.0 1018.8 0.0
 
Date/Time
CDT
Temp
°C
App
Temp
°C
Dew
Point
°C
Rel
Hum
%
Delta-T
°C
Wind Press
QNH
hPa
Press
MSL
hPa
Rain since
9am
mm
Dir  Spd
km/h
Gust
km/h
Spd
kts
Gust
kts
07/11:30pm 15.5 11.6 9.4 67 3.1 ESE 20 30 11 16 1019.0 1018.8 0.0
07/11:00pm 16.1 11.2 9.8 66 3.3 SE 26 33 14 18 1019.0 1018.8 0.0
07/10:30pm 15.5 11.4 10.1 70 2.8 SE 22 28 12 15 1019.0 1018.8 0.0
07/10:00pm 15.6 11.1 10.2 70 2.8 SE 24 32 13 17 1018.9 1018.7 0.0
07/09:30pm 16.2 10.6 10.3 68 3.1 SE 30 39 16 21 1018.5 1018.3 0.0
07/09:00pm 16.3 12.3 10.6 69 3.0 SE 22 30 12 16 1018.3 1018.1 0.0
07/08:30pm 16.6 12.2 10.5 67 3.2 SE 24 32 13 17 1018.0 1017.8 0.0
07/08:00pm 16.9 11.6 9.8 63 3.7 SE 28 37 15 20 1018.0 1017.8 0.0
07/07:30pm 17.5 11.7 10.9 65 3.6 SE 32 39 17 21 1017.6 1017.4 0.0
07/07:00pm 18.2 12.1 10.6 61 4.1 SE 33 41 18 22 1017.3 1017.1 0.0
07/06:30pm 18.7 12.5 10.0 57 4.6 SE 33 44 18 24 1017.2 1017.0 0.0
07/06:00pm 18.9 12.1 9.4 54 5.0 SSE 35 43 19 23 1017.1 1016.9 0.0
07/05:30pm 18.8 12.2 8.7 52 5.3 SSE 33 43 18 23 1017.1 1016.9 0.0
07/05:11pm 19.8 14.0 9.4 51 5.5 SSE 30 48 16 26 1017.1 1016.9 0.0
07/05:00pm 19.5 13.2 9.1 51 5.5 SE 32 44 17 24 1017.2 1017.0 0.0
07/04:30pm 21.0 15.6 10.8 52 5.6 SSE 30 43 16 23 1017.2 1017.0 0.0
07/04:00pm 20.3 14.4 9.2 49 5.9 SSE 30 44 16 24 1017.2 1017.0 0.0
07/03:30pm 20.4 14.6 9.6 50 5.8 SSE 30 37 16 20 1017.4 1017.2 0.0
07/03:00pm 20.4 14.7 8.4 46 6.3 S 28 39 15 21 1017.6 1017.4 0.0
07/02:30pm 20.4 14.9 9.3 49 5.9 SSE 28 43 15 23 1017.7 1017.5 0.0
07/02:00pm 20.9 15.7 10.1 50 5.9 SSE 28 43 15 23 1017.8 1017.6 0.0
07/01:30pm 19.5 13.4 9.7 53 5.2 SSE 32 41 17 22 1017.9 1017.7 0.0
07/01:00pm 19.5 13.5 10.2 55 5.0 S 32 44 17 24 1017.8 1017.6 0.0
07/12:30pm 20.9 16.1 11.5 55 5.2 SSE 28 43 15 23 1017.7 1017.5 0.0
07/12:00pm 19.1 13.9 10.1 56 4.8 SSE 28 39 15 21 1017.7 1017.5 0.0
07/11:30am 19.6 14.2 9.5 52 5.4 SSE 28 41 15 22 1017.4 1017.2 0.0
07/11:00am 19.0 13.1 8.9 52 5.3 SSE 30 39 16 21 1017.3 1017.1 0.0
07/10:30am 19.3 13.6 9.8 54 5.1 S 30 43 16 23 1017.1 1016.9 0.0
07/10:00am 18.3 11.3 8.6 53 5.0 SSE 35 46 19 25 1017.0 1016.8 0.0

Other formats

Comma delimited format used in spreadsheet applications
http://www.bom.gov.au/fwo/IDS60801/IDS60801.94651.axf

JavaScript Object Notation format (JSON) in row-major order
http://www.bom.gov.au/fwo/IDS60801/IDS60801.94651.json

Data quality

Most of these data are generated automatically and are frequently updated. Quality checks on data are not normally performed. It is possible for incorrect values to appear. Refer to information at About Latest Weather Observations and please check the disclaimer before using these data.